Time;durP1;ratioP1;P1;durP2;ratioP2;P2;SDS_P1;SDS_P2;PMS_P1;PMS_P2;Temp;Humidity;BMP_temperature;BMP_pressure;BME280_temperature;BME280_humidity;BME280_pressure;Samples;Min_cycle;Max_cycle;Signal;HPM_P1;HPM_P2
2022/07/16 00:01:56;;;;;;;1.23;0.65;;;14.00;99.90;;;;;;5002446;28;20049;-67
2022/07/16 00:04:23;;;;;;;3.40;1.52;;;14.20;99.90;;;;;;5004585;28;20463;-66
2022/07/16 00:06:50;;;;;;;1.20;0.52;;;14.40;99.90;;;;;;5006950;28;20037;-66
2022/07/16 00:09:17;;;;;;;12.88;1.02;;;14.50;99.90;;;;;;5010315;28;20112;-66
2022/07/16 00:11:44;;;;;;;2.28;0.55;;;14.60;99.90;;;;;;5007206;28;20169;-67
2022/07/16 00:14:11;;;;;;;4.22;2.17;;;14.70;99.90;;;;;;5005569;28;20160;-66
2022/07/16 00:16:38;;;;;;;1.55;1.30;;;14.80;99.90;;;;;;5010112;28;20092;-66
2022/07/16 00:19:18;;;;;;;4.13;1.95;;;14.90;99.90;;;;;;5008386;28;20037;-66
2022/07/16 00:21:51;;;;;;;1.67;1.50;;;15.00;99.90;;;;;;5009569;28;20165;-65
2022/07/16 00:24:18;;;;;;;3.20;0.80;;;15.10;99.90;;;;;;5010158;28;20034;-66
2022/07/16 00:26:46;;;;;;;1.45;0.63;;;15.10;99.90;;;;;;5002709;28;20042;-70
2022/07/16 00:29:15;;;;;;;2.42;0.98;;;15.10;99.90;;;;;;5004936;28;20060;-66
2022/07/16 00:31:42;;;;;;;1.80;0.85;;;15.10;99.90;;;;;;5008853;28;20034;-66
2022/07/16 00:34:10;;;;;;;1.52;0.80;;;15.10;99.90;;;;;;5003986;28;20068;-66
2022/07/16 00:36:38;;;;;;;0.65;0.30;;;15.10;99.90;;;;;;5002908;28;20073;-67
2022/07/16 00:39:06;;;;;;;4.05;1.00;;;15.00;99.90;;;;;;5003971;28;20097;-67
2022/07/16 00:41:35;;;;;;;2.90;0.80;;;15.00;99.90;;;;;;5006604;28;21088;-66
2022/07/16 00:44:05;;;;;;;0.73;0.30;;;14.90;99.90;;;;;;5002224;28;20034;-68
2022/07/16 00:46:32;;;;;;;;;;;14.90;99.90;;;;;;5007229;28;20361;-66
2022/07/16 00:49:00;;;;;;;1.77;0.70;;;14.90;99.90;;;;;;5003194;28;19921;-66
2022/07/16 00:51:28;;;;;;;0.98;0.70;;;14.80;99.90;;;;;;5008445;28;20123;-68
2022/07/16 00:53:55;;;;;;;0.35;0.28;;;14.70;99.90;;;;;;5009544;28;20041;-65
2022/07/16 00:56:23;;;;;;;1.23;0.70;;;14.70;99.90;;;;;;5008450;28;20045;-70
2022/07/16 00:58:51;;;;;;;0.98;0.75;;;14.60;99.90;;;;;;5004167;28;20431;-68
2022/07/16 01:01:19;;;;;;;1.63;0.60;;;14.50;99.90;;;;;;5008470;28;20042;-66
2022/07/16 01:03:46;;;;;;;1.10;0.80;;;14.40;99.90;;;;;;5009449;28;20061;-68
2022/07/16 01:06:14;;;;;;;0.88;0.50;;;14.30;99.90;;;;;;5007347;28;20476;-66
2022/07/16 01:08:45;;;;;;;0.63;0.40;;;14.20;99.90;;;;;;5004701;28;20062;-66
2022/07/16 01:11:14;;;;;;;1.75;0.77;;;14.20;99.90;;;;;;5002088;28;20044;-66
2022/07/16 01:13:43;;;;;;;1.58;0.80;;;14.20;99.90;;;;;;5004416;28;20160;-72
2022/07/16 01:16:11;;;;;;;1.25;0.60;;;14.10;99.90;;;;;;5006528;28;20050;-67
2022/07/16 01:18:39;;;;;;;2.45;0.60;;;14.00;99.90;;;;;;5009076;28;20041;-66
2022/07/16 01:21:06;;;;;;;1.00;0.50;;;13.80;99.90;;;;;;5007021;28;20049;-66
2022/07/16 01:23:33;;;;;;;0.47;0.45;;;13.80;99.90;;;;;;5009167;28;20290;-65
2022/07/16 01:26:01;;;;;;;0.52;0.32;;;13.60;99.90;;;;;;5008256;28;20062;-71
2022/07/16 01:28:28;;;;;;;1.20;0.50;;;13.50;99.90;;;;;;5005620;28;20065;-68
2022/07/16 01:30:55;;;;;;;2.10;0.43;;;13.40;99.90;;;;;;5005254;28;20107;-66
2022/07/16 01:33:31;;;;;;;1.08;0.57;;;13.40;99.90;;;;;;5008205;28;20065;-66
2022/07/16 01:36:10;;;;;;;1.05;0.45;;;13.30;99.90;;;;;;5001329;28;20117;-66
2022/07/16 01:38:39;;;;;;;1.70;1.52;;;13.30;99.90;;;;;;5008334;28;20042;-67
2022/07/16 01:41:06;;;;;;;0.73;0.43;;;13.50;99.90;;;;;;5006906;28;20476;-68
2022/07/16 01:43:33;;;;;;;0.55;0.35;;;13.70;99.90;;;;;;5002142;28;20130;-67
2022/07/16 01:46:01;;;;;;;0.77;0.40;;;14.00;99.90;;;;;;5001104;28;20088;-66
2022/07/16 01:48:30;;;;;;;1.05;0.45;;;14.20;99.90;;;;;;5009462;28;20034;-66
2022/07/16 01:50:58;;;;;;;1.95;0.50;;;14.40;99.90;;;;;;5008370;28;20038;-68
2022/07/16 01:53:25;;;;;;;1.23;0.80;;;14.60;99.90;;;;;;5008149;28;20407;-66
2022/07/16 01:55:52;;;;;;;2.50;0.68;;;14.80;99.90;;;;;;5006722;28;20126;-68
2022/07/16 01:58:19;;;;;;;0.38;0.38;;;14.90;99.90;;;;;;4998995;28;20144;-66
2022/07/16 02:00:46;;;;;;;1.65;0.80;;;15.00;99.90;;;;;;5005082;28;20065;-68
2022/07/16 02:03:14;;;;;;;2.50;0.60;;;15.10;99.90;;;;;;5011283;28;20673;-66
2022/07/16 02:05:42;;;;;;;1.65;0.47;;;15.10;99.90;;;;;;5011940;28;20053;-67
2022/07/16 02:08:10;;;;;;;1.10;1.00;;;15.20;99.90;;;;;;5011275;28;20100;-66
2022/07/16 02:10:37;;;;;;;1.40;0.35;;;15.30;99.90;;;;;;5010945;28;20058;-68
2022/07/16 02:13:05;;;;;;;3.72;0.93;;;15.30;99.90;;;;;;5006684;28;20100;-67
2022/07/16 02:15:33;;;;;;;3.72;0.68;;;15.30;99.90;;;;;;5002504;28;20037;-66
2022/07/16 02:18:00;;;;;;;4.38;0.70;;;15.20;99.90;;;;;;5000629;28;20050;-66
2022/07/16 02:20:28;;;;;;;1.88;0.50;;;15.20;99.90;;;;;;5011142;28;20065;-66
2022/07/16 02:22:56;;;;;;;2.53;0.60;;;15.20;99.90;;;;;;5011036;28;20034;-66
2022/07/16 02:25:23;;;;;;;3.70;0.70;;;15.20;99.90;;;;;;5011423;28;20053;-66
2022/07/16 02:28:06;;;;;;;0.60;0.28;;;15.20;99.90;;;;;;5004452;28;20034;-73
2022/07/16 02:30:41;;;;;;;1.40;0.57;;;15.20;99.90;;;;;;5005282;28;20044;-66
2022/07/16 02:33:09;;;;;;;1.75;0.47;;;15.20;99.90;;;;;;5007045;28;20050;-66
2022/07/16 02:35:37;;;;;;;1.20;0.60;;;15.20;99.90;;;;;;5003104;28;20034;-70
2022/07/16 02:38:06;;;;;;;3.28;0.80;;;15.20;99.90;;;;;;5011719;28;20141;-65
2022/07/16 02:40:34;;;;;;;1.00;0.50;;;15.10;99.90;;;;;;5011038;28;20041;-66
2022/07/16 02:43:03;;;;;;;1.88;1.15;;;15.20;99.90;;;;;;5008424;28;20042;-69
2022/07/16 02:45:32;;;;;;;1.33;0.57;;;15.10;99.90;;;;;;5006406;28;20076;-66
2022/07/16 02:47:59;;;;;;;1.48;0.68;;;15.20;99.90;;;;;;5011143;28;20120;-65
2022/07/16 02:50:27;;;;;;;1.35;0.68;;;15.20;99.90;;;;;;5010311;28;20050;-69
2022/07/16 02:52:56;;;;;;;2.25;1.20;;;15.20;99.90;;;;;;5006735;28;20042;-66
2022/07/16 02:55:23;;;;;;;2.33;0.75;;;15.20;99.90;;;;;;5008337;28;20435;-67
2022/07/16 02:57:50;;;;;;;1.60;0.73;;;15.20;99.90;;;;;;5009802;28;20054;-68
2022/07/16 03:00:17;;;;;;;3.33;0.80;;;15.20;99.90;;;;;;5005703;28;20045;-69
2022/07/16 03:02:44;;;;;;;7.82;1.08;;;15.20;99.90;;;;;;5008606;28;20657;-66
2022/07/16 03:05:12;;;;;;;2.33;0.70;;;15.20;99.90;;;;;;5010477;28;20034;-67
2022/07/16 03:07:39;;;;;;;4.07;1.00;;;15.20;99.90;;;;;;5009844;28;20062;-69
2022/07/16 03:10:08;;;;;;;2.38;0.68;;;15.20;99.90;;;;;;5010919;28;20133;-69
2022/07/16 03:12:35;;;;;;;4.15;1.45;;;15.20;99.90;;;;;;5002400;28;20092;-70
2022/07/16 03:15:03;;;;;;;1.48;0.80;;;15.30;99.90;;;;;;5003132;28;20684;-66
2022/07/16 03:17:30;;;;;;;2.67;1.00;;;15.20;99.90;;;;;;5010388;28;20061;-66
2022/07/16 03:19:57;;;;;;;2.53;0.90;;;15.20;99.90;;;;;;5010385;28;20073;-66
2022/07/16 03:22:24;;;;;;;2.95;1.10;;;15.10;99.90;;;;;;5009609;28;20073;-66
2022/07/16 03:24:51;;;;;;;4.43;1.33;;;15.10;99.90;;;;;;5008182;28;20088;-69
2022/07/16 03:27:18;;;;;;;0.95;0.68;;;15.10;99.90;;;;;;5005856;28;20100;-66
2022/07/16 03:29:45;;;;;;;2.88;1.08;;;15.10;99.90;;;;;;5005956;28;20038;-65
2022/07/16 03:32:13;;;;;;;3.92;1.00;;;15.00;99.90;;;;;;5000572;28;20070;-67
2022/07/16 03:34:40;;;;;;;5.18;1.20;;;15.00;99.90;;;;;;5007381;28;20144;-65
2022/07/16 03:37:07;;;;;;;3.95;2.42;;;15.00;99.90;;;;;;5002912;28;20465;-69
2022/07/16 03:39:34;;;;;;;6.03;1.02;;;15.00;99.90;;;;;;5005818;28;20116;-66
2022/07/16 03:42:01;;;;;;;1.80;0.85;;;15.00;99.90;;;;;;5009214;28;20042;-66
2022/07/16 03:44:28;;;;;;;4.20;2.67;;;15.00;99.90;;;;;;5004096;28;20113;-66
2022/07/16 03:46:54;;;;;;;4.18;1.05;;;15.00;99.90;;;;;;5005639;28;20308;-66
2022/07/16 03:49:22;;;;;;;2.20;1.00;;;15.00;99.90;;;;;;5010360;28;20096;-68
2022/07/16 03:51:49;;;;;;;4.97;1.42;;;15.00;99.90;;;;;;5005724;28;20118;-69
2022/07/16 03:54:15;;;;;;;3.20;1.00;;;15.00;99.90;;;;;;5002018;28;20067;-66
2022/07/16 03:56:42;;;;;;;1.45;0.77;;;15.00;99.90;;;;;;5005015;28;20523;-67
2022/07/16 03:59:10;;;;;;;3.65;1.05;;;15.00;99.90;;;;;;5005916;28;20057;-66
2022/07/16 04:01:38;;;;;;;4.75;1.35;;;15.00;99.90;;;;;;5005247;28;20091;-66
2022/07/16 04:04:05;;;;;;;4.00;1.02;;;15.00;99.90;;;;;;5004768;28;20034;-67
2022/07/16 04:06:32;;;;;;;5.03;1.05;;;15.00;99.90;;;;;;5008785;28;20048;-66
2022/07/16 04:08:59;;;;;;;2.65;1.60;;;15.00;99.90;;;;;;5002390;28;20062;-66
2022/07/16 04:11:26;;;;;;;4.63;1.15;;;15.00;99.90;;;;;;5006361;28;20125;-67
2022/07/16 04:13:53;;;;;;;6.28;1.02;;;15.10;99.90;;;;;;5003289;28;20070;-68
2022/07/16 04:16:20;;;;;;;5.13;1.42;;;15.10;99.90;;;;;;5003077;28;20084;-70
2022/07/16 04:18:47;;;;;;;1.77;0.88;;;15.00;99.90;;;;;;5006598;28;20065;-66
2022/07/16 04:21:14;;;;;;;4.15;1.10;;;15.00;99.90;;;;;;5005625;28;20033;-66
2022/07/16 04:23:41;;;;;;;2.42;1.17;;;15.00;99.90;;;;;;5005243;28;20069;-67
2022/07/16 04:26:08;;;;;;;3.15;1.60;;;15.00;99.90;;;;;;5008758;28;20073;-66
2022/07/16 04:28:35;;;;;;;5.93;2.70;;;15.00;99.90;;;;;;5007748;28;20054;-66
2022/07/16 04:31:02;;;;;;;9.32;1.60;;;15.00;99.90;;;;;;5003525;28;20601;-67
2022/07/16 04:33:29;;;;;;;6.38;1.45;;;15.00;99.90;;;;;;5009905;28;20112;-66
2022/07/16 04:35:56;;;;;;;3.15;1.63;;;15.00;99.90;;;;;;5007357;28;20478;-66
2022/07/16 04:38:23;;;;;;;5.72;1.80;;;14.90;99.90;;;;;;5000392;28;20065;-66
2022/07/16 04:40:50;;;;;;;5.43;1.58;;;14.90;99.90;;;;;;5005488;28;20053;-66
2022/07/16 04:43:17;;;;;;;4.28;1.30;;;15.00;99.90;;;;;;5006519;28;20037;-69
2022/07/16 04:45:43;;;;;;;1.95;1.33;;;15.00;99.90;;;;;;5003661;28;20156;-68
2022/07/16 04:48:10;;;;;;;2.92;1.95;;;15.00;99.90;;;;;;5001874;28;20053;-67
2022/07/16 04:50:37;;;;;;;5.15;2.38;;;15.10;99.90;;;;;;5009597;28;20034;-66
2022/07/16 04:53:04;;;;;;;3.38;0.93;;;15.10;99.90;;;;;;5008413;28;20081;-66
2022/07/16 04:55:31;;;;;;;5.75;0.93;;;15.10;99.90;;;;;;5003515;28;20042;-68
2022/07/16 04:57:58;;;;;;;3.80;1.13;;;15.20;99.90;;;;;;5005693;28;20030;-66
2022/07/16 05:00:26;;;;;;;12.48;2.05;;;15.30;99.90;;;;;;5003389;28;20975;-66
2022/07/16 05:02:56;;;;;;;5.13;0.88;;;15.30;99.90;;;;;;5007067;28;20523;-71
2022/07/16 05:05:30;;;;;;;4.97;2.13;;;15.30;99.90;;;;;;5009956;28;20081;-67
2022/07/16 05:07:58;;;;;;;4.88;2.10;;;15.20;99.90;;;;;;5005538;28;20034;-68
2022/07/16 05:10:25;;;;;;;4.00;1.02;;;15.20;99.90;;;;;;5009577;28;20121;-66
2022/07/16 05:12:52;;;;;;;3.03;0.90;;;15.20;99.90;;;;;;5009095;28;20088;-66
2022/07/16 05:15:20;;;;;;;5.05;1.50;;;15.10;99.90;;;;;;5005669;28;20046;-69
2022/07/16 05:17:47;;;;;;;5.90;1.20;;;15.20;99.90;;;;;;5006748;28;20046;-71
2022/07/16 05:20:15;;;;;;;4.28;1.40;;;15.20;99.90;;;;;;5003459;28;20069;-66
2022/07/16 05:22:43;;;;;;;4.43;1.60;;;15.20;99.90;;;;;;5008541;28;20118;-66
2022/07/16 05:25:10;;;;;;;4.13;1.02;;;15.20;99.90;;;;;;5008489;28;20203;-66
2022/07/16 05:27:38;;;;;;;5.75;1.38;;;15.20;99.90;;;;;;5009364;28;20046;-66
2022/07/16 05:30:06;;;;;;;4.43;1.70;;;15.20;99.90;;;;;;5005333;28;20029;-67
2022/07/16 05:32:39;;;;;;;5.43;0.90;;;15.30;99.90;;;;;;5005653;28;20460;-65
2022/07/16 05:35:07;;;;;;;7.68;1.10;;;15.30;99.90;;;;;;5007638;28;20044;-68
2022/07/16 05:37:34;;;;;;;4.43;2.00;;;15.30;99.90;;;;;;5012028;28;20436;-69
2022/07/16 05:40:01;;;;;;;6.13;1.40;;;15.30;99.90;;;;;;5012721;28;20030;-65
2022/07/16 05:42:28;;;;;;;6.15;2.83;;;15.30;99.90;;;;;;5004872;28;20061;-71
2022/07/16 05:44:55;;;;;;;12.70;2.60;;;15.40;99.90;;;;;;5003512;28;20435;-66
2022/07/16 05:47:22;;;;;;;6.53;1.83;;;15.50;99.90;;;;;;5007829;28;20100;-67
2022/07/16 05:49:49;;;;;;;4.13;1.10;;;15.50;99.90;;;;;;5005632;28;20133;-67
2022/07/16 05:52:16;;;;;;;1.38;1.00;;;15.40;99.90;;;;;;5009095;28;20534;-67
2022/07/16 05:54:43;;;;;;;5.97;2.63;;;15.50;99.90;;;;;;5009064;28;20053;-66
2022/07/16 05:57:10;;;;;;;3.58;0.90;;;15.60;99.90;;;;;;5012381;28;20475;-68
2022/07/16 05:59:37;;;;;;;6.82;1.75;;;15.60;99.90;;;;;;5005699;28;20136;-66
2022/07/16 06:02:04;;;;;;;5.07;1.98;;;15.60;99.90;;;;;;5006760;28;20123;-66
2022/07/16 06:04:31;;;;;;;2.17;1.00;;;15.60;99.90;;;;;;5010664;28;20061;-66
2022/07/16 06:06:59;;;;;;;3.45;1.27;;;15.60;99.90;;;;;;5006050;28;20037;-67
2022/07/16 06:09:26;;;;;;;7.32;1.27;;;15.60;99.90;;;;;;5012812;28;20053;-66
2022/07/16 06:11:53;;;;;;;12.40;2.35;;;15.60;99.90;;;;;;5002260;28;20484;-65
2022/07/16 06:14:20;;;;;;;3.38;1.17;;;15.60;99.90;;;;;;5008423;28;20221;-65
2022/07/16 06:16:48;;;;;;;5.05;1.10;;;15.50;99.90;;;;;;5003671;28;20100;-69
2022/07/16 06:19:15;;;;;;;3.65;1.50;;;15.50;99.90;;;;;;5005435;28;20112;-66
2022/07/16 06:21:42;;;;;;;2.78;1.45;;;15.50;99.90;;;;;;5002649;28;20050;-67
2022/07/16 06:24:09;;;;;;;1.83;1.00;;;15.50;99.90;;;;;;5005186;28;20042;-66
2022/07/16 06:26:36;;;;;;;7.35;1.80;;;15.50;99.90;;;;;;5011137;28;20076;-69
2022/07/16 06:29:03;;;;;;;5.55;1.95;;;15.50;99.90;;;;;;5010171;28;20123;-65
2022/07/16 06:31:30;;;;;;;5.20;1.23;;;15.60;99.90;;;;;;5003526;28;20093;-69
2022/07/16 06:33:57;;;;;;;3.85;1.92;;;15.60;99.90;;;;;;5009717;28;20545;-67
2022/07/16 06:36:24;;;;;;;5.57;1.30;;;15.70;99.90;;;;;;5011722;28;20096;-65
2022/07/16 06:38:51;;;;;;;4.35;1.23;;;15.70;99.90;;;;;;5010435;28;20437;-67
2022/07/16 06:41:18;;;;;;;8.10;1.30;;;15.70;99.90;;;;;;5010987;28;20172;-67
2022/07/16 06:43:45;;;;;;;5.38;2.28;;;15.80;99.90;;;;;;5002233;28;20097;-66
2022/07/16 06:46:12;;;;;;;5.72;1.30;;;15.90;99.90;;;;;;5006234;28;20440;-68
2022/07/16 06:48:39;;;;;;;3.67;1.75;;;15.80;99.90;;;;;;5006255;28;20494;-66
2022/07/16 06:51:06;;;;;;;10.10;1.42;;;15.80;99.90;;;;;;5010845;28;20174;-66
2022/07/16 06:53:37;;;;;;;4.38;1.23;;;15.80;99.90;;;;;;5008372;28;20068;-67
2022/07/16 06:56:06;;;;;;;6.00;1.40;;;15.80;99.90;;;;;;5010544;28;20096;-66
2022/07/16 06:58:33;;;;;;;4.55;1.13;;;15.90;99.90;;;;;;5008742;28;20089;-65
2022/07/16 07:01:01;;;;;;;4.60;1.30;;;16.00;99.90;;;;;;5006761;28;20034;-66
2022/07/16 07:03:28;;;;;;;3.40;1.42;;;16.00;99.90;;;;;;5007205;28;20045;-68
2022/07/16 07:05:56;;;;;;;3.63;1.15;;;15.90;99.90;;;;;;5010276;28;20180;-66
2022/07/16 07:08:23;;;;;;;7.18;1.60;;;16.00;99.90;;;;;;5009627;28;20126;-67
2022/07/16 07:10:50;;;;;;;2.40;1.15;;;16.00;99.90;;;;;;5002215;28;20042;-66
2022/07/16 07:13:17;;;;;;;2.00;1.20;;;16.00;99.90;;;;;;5010722;28;20472;-69
2022/07/16 07:15:44;;;;;;;6.43;1.75;;;16.20;99.90;;;;;;5008443;28;20057;-67
2022/07/16 07:18:11;;;;;;;6.07;2.25;;;16.10;99.90;;;;;;5006458;28;20076;-66
2022/07/16 07:20:38;;;;;;;9.85;1.73;;;16.10;99.90;;;;;;5010864;28;20037;-66
2022/07/16 07:23:05;;;;;;;10.77;3.33;;;16.10;99.90;;;;;;5009361;28;20069;-66
2022/07/16 07:25:32;;;;;;;3.20;1.40;;;16.00;99.90;;;;;;5009431;28;20065;-68
2022/07/16 07:27:58;;;;;;;4.28;1.50;;;15.90;99.90;;;;;;5010384;28;20081;-66
2022/07/16 07:30:25;;;;;;;4.20;1.40;;;15.90;99.90;;;;;;5009053;28;20042;-67
2022/07/16 07:32:52;;;;;;;6.35;1.98;;;15.90;99.90;;;;;;5005740;28;20069;-68
2022/07/16 07:35:20;;;;;;;2.63;1.10;;;16.00;99.90;;;;;;5010344;28;20141;-66
2022/07/16 07:37:47;;;;;;;5.43;2.78;;;16.10;99.90;;;;;;5009100;28;20069;-70
2022/07/16 07:40:14;;;;;;;3.75;1.25;;;16.10;99.90;;;;;;5003382;28;20040;-66
2022/07/16 07:42:41;;;;;;;3.63;1.27;;;16.10;99.90;;;;;;5010351;28;20501;-66
2022/07/16 07:45:09;;;;;;;4.68;1.73;;;16.20;99.90;;;;;;5005884;28;20167;-66
2022/07/16 07:47:37;;;;;;;4.03;1.27;;;16.20;99.90;;;;;;5002860;28;20054;-68
2022/07/16 07:50:08;;;;;;;2.50;1.35;;;16.30;99.90;;;;;;5007381;28;20764;-66
2022/07/16 07:52:35;;;;;;;6.57;1.95;;;16.20;99.90;;;;;;5009669;28;20038;-66
2022/07/16 07:55:03;;;;;;;2.55;1.38;;;16.20;99.90;;;;;;5008956;28;20498;-68
2022/07/16 07:57:29;;;;;;;3.67;1.63;;;16.30;99.90;;;;;;5005485;28;20100;-66
2022/07/16 07:59:56;;;;;;;2.97;1.23;;;16.30;99.90;;;;;;5005561;28;20134;-68
2022/07/16 08:02:23;;;;;;;4.55;1.55;;;16.40;99.90;;;;;;5005064;28;20078;-67
2022/07/16 08:04:50;;;;;;;5.43;2.80;;;16.40;99.90;;;;;;5008729;28;20100;-66
2022/07/16 08:07:18;;;;;;;5.53;1.63;;;16.30;99.90;;;;;;5009935;28;20101;-66
2022/07/16 08:09:45;;;;;;;6.53;2.25;;;16.40;99.90;;;;;;5008231;28;20420;-66
2022/07/16 08:12:12;;;;;;;2.03;1.10;;;16.60;99.90;;;;;;5009919;28;20486;-67
2022/07/16 08:14:39;;;;;;;5.55;1.45;;;16.50;99.90;;;;;;5008548;28;20412;-69
2022/07/16 08:17:06;;;;;;;7.97;1.30;;;16.30;99.90;;;;;;5005266;28;20168;-65
2022/07/16 08:19:34;;;;;;;2.92;1.40;;;16.50;99.90;;;;;;5006589;28;20131;-66
2022/07/16 08:22:02;;;;;;;1.58;1.02;;;16.60;99.90;;;;;;5009225;28;20096;-66
2022/07/16 08:27:15;;;;;;;5.57;1.50;;;16.90;99.90;;;;;;5001767;28;20034;-66
2022/07/16 08:29:42;;;;;;;2.38;1.05;;;16.90;99.90;;;;;;5007062;28;20746;-68
2022/07/16 08:32:09;;;;;;;5.38;1.42;;;16.90;99.90;;;;;;5004759;28;20461;-66
2022/07/16 08:34:36;;;;;;;6.47;2.13;;;16.80;99.90;;;;;;5004785;28;20061;-67
2022/07/16 08:37:13;;;;;;;4.63;1.55;;;16.70;99.90;;;;;;5008005;28;20052;-67
2022/07/16 08:39:42;;;;;;;3.35;1.17;;;16.70;99.90;;;;;;5005698;28;20116;-65
2022/07/16 08:42:13;;;;;;;5.88;0.95;;;16.70;99.90;;;;;;5009108;28;20057;-66
2022/07/16 08:44:41;;;;;;;1.52;1.33;;;16.70;99.90;;;;;;5008263;28;20423;-66
2022/07/16 08:47:13;;;;;;;5.05;1.00;;;16.70;99.90;;;;;;5003681;28;20100;-71
2022/07/16 08:49:42;;;;;;;2.28;1.65;;;16.70;99.90;;;;;;5006363;28;20353;-65
2022/07/16 08:52:09;;;;;;;1.83;1.00;;;16.60;99.90;;;;;;5008141;28;20126;-66
2022/07/16 08:54:38;;;;;;;2.53;1.45;;;16.60;99.90;;;;;;5007793;28;20046;-67
2022/07/16 08:57:05;;;;;;;5.55;2.42;;;16.50;99.90;;;;;;5008981;28;20116;-66
2022/07/16 08:59:32;;;;;;;4.18;2.45;;;16.40;99.90;;;;;;5008254;28;20128;-66
2022/07/16 09:01:59;;;;;;;2.05;1.42;;;16.40;99.90;;;;;;5001981;28;20502;-66
2022/07/16 09:04:32;;;;;;;6.45;1.45;;;16.50;99.90;;;;;;5001696;28;20065;-66
2022/07/16 09:06:59;;;;;;;4.65;2.00;;;16.70;99.90;;;;;;5005164;28;20062;-67
2022/07/16 09:09:26;;;;;;;4.40;1.45;;;16.80;99.90;;;;;;5008337;28;20050;-67
2022/07/16 09:11:53;;;;;;;2.75;1.60;;;16.90;99.90;;;;;;5003221;28;20042;-66
2022/07/16 09:14:20;;;;;;;2.00;1.10;;;17.00;99.90;;;;;;5015106;28;20042;-67
2022/07/16 09:16:51;;;;;;;2.70;1.27;;;17.10;99.90;;;;;;5011548;28;20061;-68
2022/07/16 09:19:19;;;;;;;3.15;1.25;;;17.10;99.90;;;;;;5007844;28;20048;-66
2022/07/16 09:22:05;;;;;;;1.73;0.95;;;17.10;99.90;;;;;;5014757;28;20086;-66
2022/07/16 09:24:48;;;;;;;2.92;1.33;;;17.00;99.90;;;;;;5014306;28;20046;-67
2022/07/16 09:27:26;;;;;;;2.05;1.33;;;17.00;99.90;;;;;;5007757;28;20050;-67
2022/07/16 09:29:58;;;;;;;4.00;1.42;;;17.10;99.90;;;;;;5013740;28;20396;-66
2022/07/16 09:32:32;;;;;;;2.60;1.48;;;17.20;99.90;;;;;;5008815;28;20040;-65
2022/07/16 09:35:14;;;;;;;3.45;2.05;;;17.30;99.90;;;;;;5009831;28;20041;-65
2022/07/16 09:37:44;;;;;;;2.85;1.23;;;17.30;99.90;;;;;;5008237;28;20411;-65
2022/07/16 09:40:11;;;;;;;3.20;1.50;;;17.30;99.90;;;;;;5009756;28;20558;-67
2022/07/16 09:42:39;;;;;;;3.50;1.00;;;17.40;99.90;;;;;;5005785;28;20045;-66
2022/07/16 09:45:07;;;;;;;1.65;0.65;;;17.20;99.90;;;;;;5007734;28;20042;-66
2022/07/16 09:47:36;;;;;;;1.80;0.60;;;17.30;99.90;;;;;;5011363;28;20036;-66
2022/07/16 09:50:04;;;;;;;3.28;1.30;;;17.30;99.90;;;;;;5011356;28;20046;-68
2022/07/16 09:52:34;;;;;;;2.08;1.00;;;17.40;99.90;;;;;;5012448;28;20037;-66
2022/07/16 09:55:01;;;;;;;0.32;0.30;;;17.60;99.90;;;;;;5012463;28;20100;-66
2022/07/16 09:57:30;;;;;;;2.75;0.57;;;17.70;99.90;;;;;;5011885;28;20121;-69
2022/07/16 09:59:58;;;;;;;2.15;0.98;;;17.90;99.90;;;;;;5003703;28;20046;-69
2022/07/16 10:02:38;;;;;;;1.25;1.00;;;17.70;99.90;;;;;;5006381;28;20034;-68
2022/07/16 10:05:05;;;;;;;0.93;0.90;;;17.40;99.90;;;;;;5009769;28;20042;-69
2022/07/16 10:07:33;;;;;;;0.50;0.13;;;17.20;99.90;;;;;;5014314;28;20427;-66
2022/07/16 10:10:00;;;;;;;0.55;0.55;;;17.10;99.90;;;;;;5013423;28;20053;-66
2022/07/16 10:12:29;;;;;;;2.08;0.52;;;17.00;99.90;;;;;;5010269;28;20041;-66
2022/07/16 10:14:58;;;;;;;0.65;0.25;;;17.10;99.90;;;;;;5014101;28;20464;-68
2022/07/16 10:17:37;;;;;;;0.63;0.52;;;17.20;99.90;;;;;;5006210;28;20084;-66
2022/07/16 10:20:08;;;;;;;0.20;0.20;;;17.40;99.90;;;;;;5009681;28;20049;-67
2022/07/16 10:22:42;;;;;;;0.20;0.20;;;17.40;99.90;;;;;;5004783;28;20341;-67
2022/07/16 10:25:20;;;;;;;1.50;0.52;;;17.40;99.90;;;;;;5005768;28;20038;-66
2022/07/16 10:27:48;;;;;;;0.47;0.30;;;17.40;99.90;;;;;;5008663;28;20045;-68
2022/07/16 10:30:25;;;;;;;0.20;0.20;;;17.60;99.90;;;;;;5003092;28;20065;-65
2022/07/16 10:33:07;;;;;;;1.48;0.20;;;17.70;99.90;;;;;;5008707;28;20345;-67
2022/07/16 10:35:38;;;;;;;0.30;0.20;;;17.60;99.90;;;;;;5009074;28;20108;-66
2022/07/16 10:38:10;;;;;;;0.28;0.10;;;17.40;99.90;;;;;;5010160;28;20050;-66
2022/07/16 10:41:15;;;;;;;0.90;0.47;;;17.40;99.90;;;;;;5009567;28;20046;-68
2022/07/16 10:44:09;;;;;;;0.22;0.22;;;17.50;99.90;;;;;;5007559;28;20088;-66
2022/07/16 10:46:51;;;;;;;1.65;0.50;;;17.50;99.90;;;;;;5004895;28;20041;-66
2022/07/16 10:49:19;;;;;;;0.77;0.30;;;17.60;99.90;;;;;;5002991;28;20049;-66
2022/07/16 10:51:53;;;;;;;0.70;0.40;;;17.80;99.90;;;;;;5010095;28;20049;-66
2022/07/16 10:54:29;;;;;;;0.30;0.25;;;17.90;99.90;;;;;;5003146;28;20034;-71
2022/07/16 10:56:59;;;;;;;1.17;0.40;;;17.70;99.90;;;;;;5010559;28;20036;-66
2022/07/16 10:59:31;;;;;;;0.63;0.63;;;17.50;99.90;;;;;;5009502;28;20073;-72
2022/07/16 11:02:01;;;;;;;0.43;0.30;;;17.50;99.90;;;;;;5008007;28;21005;-65
2022/07/16 11:04:43;;;;;;;0.60;0.40;;;17.60;99.90;;;;;;5005901;28;20064;-66
2022/07/16 11:07:13;;;;;;;2.35;0.57;;;17.80;99.90;;;;;;5006882;28;20065;-68
2022/07/16 11:09:43;;;;;;;1.98;1.00;;;17.90;99.90;;;;;;5009892;28;20081;-72
2022/07/16 11:12:17;;;;;;;0.45;0.40;;;18.10;99.90;;;;;;5010483;28;20804;-66
2022/07/16 11:14:49;;;;;;;0.73;0.40;;;18.20;99.90;;;;;;5010410;28;20415;-65
2022/07/16 11:17:21;;;;;;;0.40;0.35;;;18.10;99.90;;;;;;5006474;28;20042;-68
2022/07/16 11:19:52;;;;;;;1.33;0.35;;;18.20;99.90;;;;;;4999968;28;20040;-68
2022/07/16 11:22:26;;;;;;;0.50;0.30;;;18.00;99.90;;;;;;5005161;28;20104;-66
2022/07/16 11:24:59;;;;;;;0.30;0.30;;;18.20;99.90;;;;;;5008585;28;20048;-66
2022/07/16 11:27:32;;;;;;;1.77;0.50;;;18.00;99.90;;;;;;5011083;28;20364;-66
2022/07/16 11:30:02;;;;;;;0.65;0.50;;;18.00;99.90;;;;;;5003698;28;20160;-66
2022/07/16 11:32:31;;;;;;;0.82;0.60;;;18.00;99.90;;;;;;5005621;28;20524;-68
2022/07/16 11:35:05;;;;;;;1.25;0.22;;;18.00;99.90;;;;;;5006383;28;20661;-69
2022/07/16 11:37:53;;;;;;;1.73;0.65;;;18.00;99.90;;;;;;5006266;28;20033;-66
2022/07/16 11:40:37;;;;;;;0.55;0.47;;;18.00;99.90;;;;;;5004139;28;20065;-66
2022/07/16 11:43:05;;;;;;;0.68;0.50;;;18.20;99.90;;;;;;5010140;28;20088;-67
2022/07/16 11:45:43;;;;;;;0.70;0.70;;;17.90;99.90;;;;;;5009953;28;20042;-67
2022/07/16 11:48:15;;;;;;;0.98;0.40;;;18.00;99.90;;;;;;5006368;28;20460;-69
2022/07/16 11:50:44;;;;;;;1.10;0.40;;;18.10;99.90;;;;;;5007058;28;20100;-67
2022/07/16 11:53:13;;;;;;;0.60;0.52;;;18.20;99.90;;;;;;5008955;28;20049;-67
2022/07/16 11:55:42;;;;;;;2.30;0.40;;;18.10;99.90;;;;;;5008429;28;20038;-67
2022/07/16 11:58:15;;;;;;;0.63;0.40;;;18.30;99.90;;;;;;5009074;28;20061;-66
2022/07/16 12:00:43;;;;;;;0.40;0.40;;;18.30;99.90;;;;;;5006974;28;20121;-68
2022/07/16 12:03:11;;;;;;;0.68;0.60;;;18.10;99.90;;;;;;5004318;28;20104;-69
2022/07/16 12:05:38;;;;;;;0.82;0.30;;;18.20;99.90;;;;;;5002026;28;20049;-66
2022/07/16 12:08:07;;;;;;;1.90;0.63;;;18.30;99.90;;;;;;5000853;28;20034;-65
2022/07/16 12:11:05;;;;;;;1.15;0.50;;;18.20;99.90;;;;;;5009231;28;20034;-66
2022/07/16 12:13:36;;;;;;;1.10;0.70;;;18.10;99.90;;;;;;5004485;28;20122;-69
2022/07/16 12:16:10;;;;;;;1.05;0.50;;;18.10;99.90;;;;;;5007488;28;20600;-66
2022/07/16 12:18:38;;;;;;;1.67;0.50;;;18.10;99.90;;;;;;5001744;28;20042;-69
2022/07/16 12:21:25;;;;;;;0.63;0.25;;;18.20;99.90;;;;;;4995058;28;20092;-66
2022/07/16 12:23:52;;;;;;;0.40;0.30;;;18.00;99.90;;;;;;4996706;28;20050;-66
2022/07/16 12:26:31;;;;;;;0.50;0.40;;;17.90;99.90;;;;;;4995153;28;20061;-68
2022/07/16 12:29:00;;;;;;;0.37;0.37;;;17.90;99.90;;;;;;4998844;28;20080;-66
2022/07/16 12:31:29;;;;;;;0.20;0.20;;;18.20;99.90;;;;;;4997281;28;20046;-68
2022/07/16 12:33:58;;;;;;;0.65;0.40;;;18.30;99.90;;;;;;4997167;28;20042;-66
2022/07/16 12:36:32;;;;;;;1.00;0.52;;;18.20;99.90;;;;;;5019888;28;20417;-66
2022/07/16 12:39:02;;;;;;;1.20;0.52;;;18.30;99.90;;;;;;5008838;28;20096;-66
2022/07/16 12:41:33;;;;;;;1.00;0.45;;;18.40;99.90;;;;;;5001973;28;20160;-67
2022/07/16 12:44:15;;;;;;;4.30;0.40;;;18.40;99.90;;;;;;4998091;28;20061;-66
2022/07/16 12:46:46;;;;;;;1.17;0.30;;;18.50;99.90;;;;;;5006073;28;20041;-66
2022/07/16 12:49:22;;;;;;;0.35;0.32;;;18.70;99.90;;;;;;5000399;28;20069;-70
2022/07/16 12:51:56;;;;;;;2.27;0.60;;;18.70;99.90;;;;;;5005271;28;20059;-67
2022/07/16 12:54:24;;;;;;;1.30;0.30;;;18.70;99.90;;;;;;5003855;28;20202;-66
2022/07/16 12:59:37;;;;;;;0.57;0.55;;;18.60;99.90;;;;;;5006519;28;20833;-67
2022/07/16 13:02:05;;;;;;;0.73;0.45;;;18.60;99.90;;;;;;5005481;28;20132;-66
2022/07/16 13:04:33;;;;;;;0.68;0.43;;;18.50;99.90;;;;;;5003573;28;20030;-68